sensor_id;sensor_type;location;lat;lon;timestamp;P1;durP1;ratioP1;P2;durP2;ratioP2
78925;SDS011;68321;51.276;7.208;2023-06-01T00:00:36;5.53;;;2.37;;
78925;SDS011;68321;51.276;7.208;2023-06-01T00:03:03;4.22;;;2.45;;
78925;SDS011;68321;51.276;7.208;2023-06-01T00:05:28;6.38;;;2.45;;
78925;SDS011;68321;51.276;7.208;2023-06-01T00:07:54;8.32;;;2.20;;
78925;SDS011;68321;51.276;7.208;2023-06-01T00:10:19;4.55;;;2.45;;
78925;SDS011;68321;51.276;7.208;2023-06-01T00:12:45;3.97;;;2.50;;
78925;SDS011;68321;51.276;7.208;2023-06-01T00:15:10;5.50;;;1.70;;
78925;SDS011;68321;51.276;7.208;2023-06-01T00:17:36;7.40;;;2.60;;
78925;SDS011;68321;51.276;7.208;2023-06-01T00:20:01;3.70;;;2.28;;
78925;SDS011;68321;51.276;7.208;2023-06-01T00:22:31;4.85;;;2.53;;
78925;SDS011;68321;51.276;7.208;2023-06-01T00:24:59;4.82;;;2.30;;
78925;SDS011;68321;51.276;7.208;2023-06-01T00:27:25;8.50;;;3.42;;
78925;SDS011;68321;51.276;7.208;2023-06-01T00:29:50;5.47;;;2.27;;
78925;SDS011;68321;51.276;7.208;2023-06-01T00:32:15;8.88;;;2.92;;
78925;SDS011;68321;51.276;7.208;2023-06-01T00:34:41;6.03;;;2.67;;
78925;SDS011;68321;51.276;7.208;2023-06-01T00:37:06;8.00;;;3.10;;
78925;SDS011;68321;51.276;7.208;2023-06-01T00:39:31;6.40;;;2.63;;
78925;SDS011;68321;51.276;7.208;2023-06-01T00:41:57;7.43;;;2.83;;
78925;SDS011;68321;51.276;7.208;2023-06-01T00:44:22;6.28;;;3.00;;
78925;SDS011;68321;51.276;7.208;2023-06-01T00:46:47;4.37;;;2.40;;
78925;SDS011;68321;51.276;7.208;2023-06-01T00:49:13;7.35;;;2.92;;
78925;SDS011;68321;51.276;7.208;2023-06-01T00:51:39;7.00;;;2.80;;
78925;SDS011;68321;51.276;7.208;2023-06-01T00:54:05;6.20;;;2.72;;
78925;SDS011;68321;51.276;7.208;2023-06-01T00:56:31;7.55;;;3.08;;
78925;SDS011;68321;51.276;7.208;2023-06-01T00:58:58;5.72;;;2.70;;
78925;SDS011;68321;51.276;7.208;2023-06-01T01:01:24;6.63;;;2.60;;
78925;SDS011;68321;51.276;7.208;2023-06-01T01:03:50;6.78;;;3.05;;
78925;SDS011;68321;51.276;7.208;2023-06-01T01:11:39;7.15;;;3.38;;
78925;SDS011;68321;51.276;7.208;2023-06-01T01:14:20;8.68;;;3.47;;
78925;SDS011;68321;51.276;7.208;2023-06-01T01:20:02;6.90;;;3.10;;
78925;SDS011;68321;51.276;7.208;2023-06-01T01:30:24;12.30;;;3.63;;
78925;SDS011;68321;51.276;7.208;2023-06-01T01:32:51;5.15;;;2.88;;
78925;SDS011;68321;51.276;7.208;2023-06-01T01:35:18;6.18;;;3.65;;
78925;SDS011;68321;51.276;7.208;2023-06-01T01:37:50;11.50;;;3.35;;
78925;SDS011;68321;51.276;7.208;2023-06-01T01:40:16;6.38;;;3.38;;
78925;SDS011;68321;51.276;7.208;2023-06-01T01:42:42;7.87;;;4.20;;
78925;SDS011;68321;51.276;7.208;2023-06-01T01:45:09;8.83;;;3.13;;
78925;SDS011;68321;51.276;7.208;2023-06-01T01:47:36;7.85;;;3.80;;
78925;SDS011;68321;51.276;7.208;2023-06-01T01:50:07;7.13;;;3.63;;
78925;SDS011;68321;51.276;7.208;2023-06-01T01:55:02;6.05;;;3.13;;
78925;SDS011;68321;51.276;7.208;2023-06-01T01:57:29;13.20;;;3.50;;
78925;SDS011;68321;51.276;7.208;2023-06-01T01:59:54;8.32;;;3.85;;
78925;SDS011;68321;51.276;7.208;2023-06-01T02:02:20;12.52;;;4.43;;
78925;SDS011;68321;51.276;7.208;2023-06-01T02:04:45;7.18;;;3.40;;
78925;SDS011;68321;51.276;7.208;2023-06-01T02:07:11;7.37;;;3.63;;
78925;SDS011;68321;51.276;7.208;2023-06-01T02:09:36;6.50;;;3.88;;
78925;SDS011;68321;51.276;7.208;2023-06-01T02:12:02;9.10;;;4.50;;
78925;SDS011;68321;51.276;7.208;2023-06-01T02:14:28;6.13;;;3.58;;
78925;SDS011;68321;51.276;7.208;2023-06-01T02:16:53;6.97;;;3.50;;
78925;SDS011;68321;51.276;7.208;2023-06-01T02:19:19;9.10;;;4.55;;
78925;SDS011;68321;51.276;7.208;2023-06-01T02:21:45;9.52;;;3.58;;
78925;SDS011;68321;51.276;7.208;2023-06-01T02:24:10;7.22;;;3.42;;
78925;SDS011;68321;51.276;7.208;2023-06-01T02:26:36;7.65;;;3.53;;
78925;SDS011;68321;51.276;7.208;2023-06-01T02:29:02;6.22;;;3.55;;
78925;SDS011;68321;51.276;7.208;2023-06-01T02:31:29;11.80;;;4.15;;
78925;SDS011;68321;51.276;7.208;2023-06-01T02:33:55;10.55;;;4.35;;
78925;SDS011;68321;51.276;7.208;2023-06-01T02:36:20;8.55;;;4.35;;
78925;SDS011;68321;51.276;7.208;2023-06-01T02:38:46;11.40;;;5.65;;
78925;SDS011;68321;51.276;7.208;2023-06-01T02:41:11;10.95;;;5.22;;
78925;SDS011;68321;51.276;7.208;2023-06-01T02:43:37;10.10;;;5.18;;
78925;SDS011;68321;51.276;7.208;2023-06-01T02:46:02;9.80;;;5.27;;
78925;SDS011;68321;51.276;7.208;2023-06-01T02:48:28;12.50;;;6.18;;
78925;SDS011;68321;51.276;7.208;2023-06-01T02:50:53;10.85;;;4.78;;
78925;SDS011;68321;51.276;7.208;2023-06-01T02:53:20;9.60;;;5.82;;
78925;SDS011;68321;51.276;7.208;2023-06-01T02:55:45;11.38;;;6.05;;
78925;SDS011;68321;51.276;7.208;2023-06-01T02:58:11;13.00;;;7.03;;
78925;SDS011;68321;51.276;7.208;2023-06-01T03:00:41;14.20;;;6.55;;
78925;SDS011;68321;51.276;7.208;2023-06-01T03:03:07;12.05;;;7.03;;
78925;SDS011;68321;51.276;7.208;2023-06-01T03:05:32;15.00;;;6.85;;
78925;SDS011;68321;51.276;7.208;2023-06-01T03:07:58;14.40;;;7.03;;
78925;SDS011;68321;51.276;7.208;2023-06-01T03:10:23;15.50;;;8.13;;
78925;SDS011;68321;51.276;7.208;2023-06-01T03:12:49;14.07;;;7.65;;
78925;SDS011;68321;51.276;7.208;2023-06-01T03:15:14;11.23;;;6.75;;
78925;SDS011;68321;51.276;7.208;2023-06-01T03:17:40;14.32;;;6.22;;
78925;SDS011;68321;51.276;7.208;2023-06-01T03:20:06;21.98;;;8.63;;
78925;SDS011;68321;51.276;7.208;2023-06-01T03:22:39;17.20;;;8.52;;
78925;SDS011;68321;51.276;7.208;2023-06-01T03:25:11;15.90;;;8.05;;
78925;SDS011;68321;51.276;7.208;2023-06-01T03:27:41;20.35;;;9.32;;
78925;SDS011;68321;51.276;7.208;2023-06-01T03:30:07;20.50;;;10.10;;
78925;SDS011;68321;51.276;7.208;2023-06-01T03:32:38;20.92;;;9.75;;
78925;SDS011;68321;51.276;7.208;2023-06-01T03:37:36;23.35;;;11.85;;
78925;SDS011;68321;51.276;7.208;2023-06-01T03:40:03;24.08;;;13.02;;
78925;SDS011;68321;51.276;7.208;2023-06-01T03:42:39;24.35;;;12.05;;
78925;SDS011;68321;51.276;7.208;2023-06-01T03:45:07;25.08;;;15.43;;
78925;SDS011;68321;51.276;7.208;2023-06-01T03:50:00;25.33;;;13.10;;
78925;SDS011;68321;51.276;7.208;2023-06-01T03:52:26;21.42;;;12.93;;
78925;SDS011;68321;51.276;7.208;2023-06-01T03:54:53;26.95;;;13.82;;
78925;SDS011;68321;51.276;7.208;2023-06-01T03:57:19;24.73;;;13.27;;
78925;SDS011;68321;51.276;7.208;2023-06-01T03:59:45;22.70;;;13.02;;
78925;SDS011;68321;51.276;7.208;2023-06-01T04:02:11;25.20;;;12.15;;
78925;SDS011;68321;51.276;7.208;2023-06-01T04:04:36;26.85;;;13.85;;
78925;SDS011;68321;51.276;7.208;2023-06-01T04:07:02;25.02;;;12.55;;
78925;SDS011;68321;51.276;7.208;2023-06-01T04:09:29;23.60;;;10.90;;
78925;SDS011;68321;51.276;7.208;2023-06-01T04:11:54;23.33;;;13.60;;
78925;SDS011;68321;51.276;7.208;2023-06-01T04:14:20;25.95;;;11.43;;
78925;SDS011;68321;51.276;7.208;2023-06-01T04:16:45;22.15;;;10.65;;
78925;SDS011;68321;51.276;7.208;2023-06-01T04:19:11;20.87;;;12.20;;
78925;SDS011;68321;51.276;7.208;2023-06-01T04:21:36;19.90;;;11.52;;
78925;SDS011;68321;51.276;7.208;2023-06-01T04:24:02;21.58;;;11.10;;
78925;SDS011;68321;51.276;7.208;2023-06-01T04:26:27;21.77;;;11.82;;
78925;SDS011;68321;51.276;7.208;2023-06-01T04:28:52;20.53;;;11.70;;
78925;SDS011;68321;51.276;7.208;2023-06-01T04:31:21;25.85;;;14.88;;
78925;SDS011;68321;51.276;7.208;2023-06-01T04:33:47;23.05;;;11.68;;
78925;SDS011;68321;51.276;7.208;2023-06-01T04:36:21;20.40;;;12.27;;
78925;SDS011;68321;51.276;7.208;2023-06-01T04:38:48;23.63;;;12.95;;
78925;SDS011;68321;51.276;7.208;2023-06-01T04:41:19;21.30;;;12.30;;
78925;SDS011;68321;51.276;7.208;2023-06-01T04:43:54;21.48;;;11.77;;
78925;SDS011;68321;51.276;7.208;2023-06-01T04:46:31;23.05;;;12.90;;
78925;SDS011;68321;51.276;7.208;2023-06-01T04:48:57;19.65;;;11.75;;
78925;SDS011;68321;51.276;7.208;2023-06-01T04:51:23;25.17;;;12.82;;
78925;SDS011;68321;51.276;7.208;2023-06-01T04:53:50;23.50;;;12.70;;
78925;SDS011;68321;51.276;7.208;2023-06-01T04:56:17;20.70;;;12.65;;
78925;SDS011;68321;51.276;7.208;2023-06-01T04:58:44;23.63;;;12.88;;
78925;SDS011;68321;51.276;7.208;2023-06-01T05:01:12;23.88;;;12.35;;
78925;SDS011;68321;51.276;7.208;2023-06-01T05:03:40;27.13;;;12.02;;
78925;SDS011;68321;51.276;7.208;2023-06-01T05:06:07;23.00;;;12.68;;
78925;SDS011;68321;51.276;7.208;2023-06-01T05:08:33;24.90;;;12.73;;
78925;SDS011;68321;51.276;7.208;2023-06-01T05:10:58;28.15;;;12.85;;
78925;SDS011;68321;51.276;7.208;2023-06-01T05:13:24;25.50;;;12.90;;
78925;SDS011;68321;51.276;7.208;2023-06-01T05:15:49;25.45;;;14.02;;
78925;SDS011;68321;51.276;7.208;2023-06-01T05:18:15;25.75;;;12.77;;
78925;SDS011;68321;51.276;7.208;2023-06-01T05:20:40;27.20;;;13.37;;
78925;SDS011;68321;51.276;7.208;2023-06-01T05:23:05;22.30;;;13.17;;
78925;SDS011;68321;51.276;7.208;2023-06-01T05:25:31;27.15;;;13.63;;
78925;SDS011;68321;51.276;7.208;2023-06-01T05:27:56;23.27;;;13.30;;
78925;SDS011;68321;51.276;7.208;2023-06-01T05:30:21;23.98;;;11.75;;
78925;SDS011;68321;51.276;7.208;2023-06-01T05:32:47;25.47;;;12.87;;
78925;SDS011;68321;51.276;7.208;2023-06-01T05:35:12;22.50;;;13.45;;
78925;SDS011;68321;51.276;7.208;2023-06-01T05:37:38;22.52;;;11.82;;
78925;SDS011;68321;51.276;7.208;2023-06-01T05:40:03;23.17;;;12.23;;
78925;SDS011;68321;51.276;7.208;2023-06-01T05:42:32;27.30;;;14.57;;
78925;SDS011;68321;51.276;7.208;2023-06-01T05:44:57;24.45;;;12.27;;
78925;SDS011;68321;51.276;7.208;2023-06-01T05:47:23;23.73;;;12.93;;
78925;SDS011;68321;51.276;7.208;2023-06-01T05:49:48;22.58;;;11.30;;
78925;SDS011;68321;51.276;7.208;2023-06-01T05:52:14;23.88;;;12.00;;
78925;SDS011;68321;51.276;7.208;2023-06-01T05:54:39;19.35;;;11.40;;
78925;SDS011;68321;51.276;7.208;2023-06-01T05:57:04;22.55;;;11.13;;
78925;SDS011;68321;51.276;7.208;2023-06-01T05:59:30;20.73;;;11.63;;
78925;SDS011;68321;51.276;7.208;2023-06-01T06:01:56;22.13;;;12.13;;
78925;SDS011;68321;51.276;7.208;2023-06-01T06:04:21;22.17;;;12.47;;
78925;SDS011;68321;51.276;7.208;2023-06-01T06:06:47;22.42;;;12.07;;
78925;SDS011;68321;51.276;7.208;2023-06-01T06:09:13;21.67;;;13.07;;
78925;SDS011;68321;51.276;7.208;2023-06-01T06:11:39;22.88;;;12.68;;
78925;SDS011;68321;51.276;7.208;2023-06-01T06:14:05;20.60;;;12.27;;
78925;SDS011;68321;51.276;7.208;2023-06-01T06:16:30;24.42;;;13.90;;
78925;SDS011;68321;51.276;7.208;2023-06-01T06:18:55;27.92;;;13.75;;
78925;SDS011;68321;51.276;7.208;2023-06-01T06:21:21;23.07;;;11.57;;
78925;SDS011;68321;51.276;7.208;2023-06-01T06:23:46;22.40;;;11.63;;
78925;SDS011;68321;51.276;7.208;2023-06-01T06:26:12;23.70;;;12.48;;
78925;SDS011;68321;51.276;7.208;2023-06-01T06:28:38;25.13;;;13.98;;
78925;SDS011;68321;51.276;7.208;2023-06-01T06:31:03;22.27;;;12.57;;
78925;SDS011;68321;51.276;7.208;2023-06-01T06:33:28;24.93;;;12.43;;
78925;SDS011;68321;51.276;7.208;2023-06-01T06:35:54;23.45;;;13.52;;
78925;SDS011;68321;51.276;7.208;2023-06-01T06:38:20;24.65;;;12.77;;
78925;SDS011;68321;51.276;7.208;2023-06-01T06:40:45;23.70;;;12.50;;
78925;SDS011;68321;51.276;7.208;2023-06-01T06:43:10;18.53;;;11.53;;
78925;SDS011;68321;51.276;7.208;2023-06-01T06:45:36;21.45;;;12.55;;
78925;SDS011;68321;51.276;7.208;2023-06-01T06:48:01;24.60;;;13.30;;
78925;SDS011;68321;51.276;7.208;2023-06-01T06:50:26;23.43;;;13.07;;
78925;SDS011;68321;51.276;7.208;2023-06-01T06:52:52;23.85;;;11.52;;
78925;SDS011;68321;51.276;7.208;2023-06-01T06:55:18;20.45;;;12.40;;
78925;SDS011;68321;51.276;7.208;2023-06-01T06:57:43;23.75;;;13.02;;
78925;SDS011;68321;51.276;7.208;2023-06-01T07:00:09;26.17;;;12.30;;
78925;SDS011;68321;51.276;7.208;2023-06-01T07:02:39;19.77;;;11.85;;
78925;SDS011;68321;51.276;7.208;2023-06-01T07:05:05;23.33;;;12.88;;
78925;SDS011;68321;51.276;7.208;2023-06-01T07:07:35;21.13;;;11.93;;
78925;SDS011;68321;51.276;7.208;2023-06-01T07:10:01;22.23;;;13.20;;
78925;SDS011;68321;51.276;7.208;2023-06-01T07:12:26;25.13;;;12.87;;
78925;SDS011;68321;51.276;7.208;2023-06-01T07:14:51;25.02;;;11.32;;
78925;SDS011;68321;51.276;7.208;2023-06-01T07:17:17;20.57;;;11.13;;
78925;SDS011;68321;51.276;7.208;2023-06-01T07:19:42;18.08;;;11.90;;
78925;SDS011;68321;51.276;7.208;2023-06-01T07:22:07;22.53;;;12.57;;
78925;SDS011;68321;51.276;7.208;2023-06-01T07:24:33;20.88;;;12.43;;
78925;SDS011;68321;51.276;7.208;2023-06-01T07:26:58;22.42;;;12.73;;
78925;SDS011;68321;51.276;7.208;2023-06-01T07:29:24;21.63;;;12.93;;
78925;SDS011;68321;51.276;7.208;2023-06-01T07:31:51;21.95;;;12.90;;
78925;SDS011;68321;51.276;7.208;2023-06-01T07:34:17;23.30;;;13.77;;
78925;SDS011;68321;51.276;7.208;2023-06-01T07:36:42;23.15;;;13.32;;
78925;SDS011;68321;51.276;7.208;2023-06-01T07:39:10;23.48;;;13.82;;
78925;SDS011;68321;51.276;7.208;2023-06-01T07:41:36;21.95;;;13.15;;
78925;SDS011;68321;51.276;7.208;2023-06-01T07:44:01;24.38;;;12.75;;
78925;SDS011;68321;51.276;7.208;2023-06-01T07:46:27;24.17;;;13.18;;
78925;SDS011;68321;51.276;7.208;2023-06-01T07:48:52;25.10;;;12.97;;
78925;SDS011;68321;51.276;7.208;2023-06-01T07:51:17;24.90;;;15.00;;
78925;SDS011;68321;51.276;7.208;2023-06-01T07:53:43;29.10;;;16.50;;
78925;SDS011;68321;51.276;7.208;2023-06-01T07:56:09;31.90;;;18.08;;
78925;SDS011;68321;51.276;7.208;2023-06-01T07:58:34;30.38;;;17.25;;
78925;SDS011;68321;51.276;7.208;2023-06-01T08:01:01;28.55;;;16.63;;
78925;SDS011;68321;51.276;7.208;2023-06-01T08:03:27;28.73;;;18.35;;
78925;SDS011;68321;51.276;7.208;2023-06-01T08:05:53;32.43;;;17.67;;
78925;SDS011;68321;51.276;7.208;2023-06-01T08:08:23;32.40;;;17.40;;
78925;SDS011;68321;51.276;7.208;2023-06-01T08:10:48;30.65;;;18.92;;
78925;SDS011;68321;51.276;7.208;2023-06-01T08:13:14;35.65;;;21.60;;
78925;SDS011;68321;51.276;7.208;2023-06-01T08:15:40;36.08;;;21.15;;
78925;SDS011;68321;51.276;7.208;2023-06-01T08:18:07;33.13;;;20.23;;
78925;SDS011;68321;51.276;7.208;2023-06-01T08:20:32;36.90;;;21.60;;
78925;SDS011;68321;51.276;7.208;2023-06-01T08:22:58;34.97;;;21.48;;
78925;SDS011;68321;51.276;7.208;2023-06-01T08:25:24;36.83;;;22.17;;
78925;SDS011;68321;51.276;7.208;2023-06-01T08:27:49;37.70;;;22.83;;
78925;SDS011;68321;51.276;7.208;2023-06-01T08:30:15;37.63;;;23.57;;
78925;SDS011;68321;51.276;7.208;2023-06-01T08:32:40;36.58;;;22.90;;
78925;SDS011;68321;51.276;7.208;2023-06-01T08:35:06;36.67;;;22.08;;
78925;SDS011;68321;51.276;7.208;2023-06-01T08:37:36;41.92;;;24.67;;
78925;SDS011;68321;51.276;7.208;2023-06-01T08:40:02;38.10;;;24.73;;
78925;SDS011;68321;51.276;7.208;2023-06-01T08:42:33;39.65;;;23.88;;
78925;SDS011;68321;51.276;7.208;2023-06-01T08:45:06;37.95;;;23.50;;
78925;SDS011;68321;51.276;7.208;2023-06-01T08:47:33;33.85;;;19.08;;
78925;SDS011;68321;51.276;7.208;2023-06-01T08:50:02;29.08;;;20.40;;
78925;SDS011;68321;51.276;7.208;2023-06-01T08:52:28;31.15;;;21.67;;
78925;SDS011;68321;51.276;7.208;2023-06-01T08:54:57;36.30;;;21.30;;
78925;SDS011;68321;51.276;7.208;2023-06-01T08:57:23;38.55;;;23.52;;
78925;SDS011;68321;51.276;7.208;2023-06-01T08:59:48;29.98;;;21.92;;
78925;SDS011;68321;51.276;7.208;2023-06-01T09:02:14;33.67;;;22.00;;
78925;SDS011;68321;51.276;7.208;2023-06-01T09:04:40;31.65;;;20.58;;
78925;SDS011;68321;51.276;7.208;2023-06-01T09:07:09;30.77;;;21.30;;
78925;SDS011;68321;51.276;7.208;2023-06-01T09:09:35;28.17;;;18.35;;
78925;SDS011;68321;51.276;7.208;2023-06-01T09:12:17;29.05;;;20.92;;
78925;SDS011;68321;51.276;7.208;2023-06-01T09:17:42;29.42;;;19.25;;
78925;SDS011;68321;51.276;7.208;2023-06-01T09:20:12;23.35;;;15.15;;
78925;SDS011;68321;51.276;7.208;2023-06-01T09:22:39;23.70;;;15.73;;
78925;SDS011;68321;51.276;7.208;2023-06-01T09:25:05;24.80;;;17.33;;
78925;SDS011;68321;51.276;7.208;2023-06-01T09:28:06;23.35;;;17.17;;
78925;SDS011;68321;51.276;7.208;2023-06-01T09:35:43;30.63;;;20.02;;
78925;SDS011;68321;51.276;7.208;2023-06-01T09:38:10;29.42;;;20.35;;
78925;SDS011;68321;51.276;7.208;2023-06-01T09:40:37;29.73;;;19.35;;
78925;SDS011;68321;51.276;7.208;2023-06-01T09:43:02;24.70;;;18.60;;
78925;SDS011;68321;51.276;7.208;2023-06-01T09:45:30;24.45;;;15.70;;
78925;SDS011;68321;51.276;7.208;2023-06-01T09:47:57;24.40;;;15.43;;
78925;SDS011;68321;51.276;7.208;2023-06-01T09:50:40;26.55;;;16.77;;
78925;SDS011;68321;51.276;7.208;2023-06-01T09:53:07;21.75;;;14.60;;
78925;SDS011;68321;51.276;7.208;2023-06-01T09:55:33;20.80;;;13.77;;
78925;SDS011;68321;51.276;7.208;2023-06-01T09:58:20;20.20;;;14.40;;
78925;SDS011;68321;51.276;7.208;2023-06-01T10:00:47;21.98;;;13.63;;
78925;SDS011;68321;51.276;7.208;2023-06-01T10:03:14;19.20;;;13.80;;
78925;SDS011;68321;51.276;7.208;2023-06-01T10:05:40;19.88;;;12.82;;
78925;SDS011;68321;51.276;7.208;2023-06-01T10:08:07;16.75;;;12.07;;
78925;SDS011;68321;51.276;7.208;2023-06-01T10:10:34;19.35;;;12.65;;
78925;SDS011;68321;51.276;7.208;2023-06-01T10:13:00;16.35;;;11.13;;
78925;SDS011;68321;51.276;7.208;2023-06-01T10:15:25;17.83;;;11.13;;
78925;SDS011;68321;51.276;7.208;2023-06-01T10:17:50;19.50;;;10.65;;
78925;SDS011;68321;51.276;7.208;2023-06-01T10:20:16;15.45;;;10.18;;
78925;SDS011;68321;51.276;7.208;2023-06-01T10:22:42;14.13;;;10.45;;
78925;SDS011;68321;51.276;7.208;2023-06-01T10:25:09;12.85;;;9.38;;
78925;SDS011;68321;51.276;7.208;2023-06-01T10:28:11;12.48;;;9.82;;
78925;SDS011;68321;51.276;7.208;2023-06-01T10:30:32;15.85;;;10.35;;
78925;SDS011;68321;51.276;7.208;2023-06-01T10:32:58;13.30;;;8.85;;
78925;SDS011;68321;51.276;7.208;2023-06-01T10:40:35;12.90;;;7.50;;
78925;SDS011;68321;51.276;7.208;2023-06-01T10:43:01;13.10;;;8.38;;
78925;SDS011;68321;51.276;7.208;2023-06-01T10:47:58;13.05;;;7.38;;
78925;SDS011;68321;51.276;7.208;2023-06-01T10:50:23;11.27;;;8.10;;
78925;SDS011;68321;51.276;7.208;2023-06-01T10:52:49;12.90;;;9.25;;
78925;SDS011;68321;51.276;7.208;2023-06-01T10:57:42;14.27;;;8.13;;
78925;SDS011;68321;51.276;7.208;2023-06-01T11:00:11;13.30;;;8.10;;
78925;SDS011;68321;51.276;7.208;2023-06-01T11:08:49;18.67;;;9.00;;
78925;SDS011;68321;51.276;7.208;2023-06-01T11:10:55;13.35;;;7.68;;
78925;SDS011;68321;51.276;7.208;2023-06-01T11:21:07;14.32;;;9.52;;
78925;SDS011;68321;51.276;7.208;2023-06-01T11:23:33;19.38;;;9.10;;
78925;SDS011;68321;51.276;7.208;2023-06-01T11:25:59;12.80;;;7.60;;
78925;SDS011;68321;51.276;7.208;2023-06-01T11:28:26;15.75;;;8.30;;
78925;SDS011;68321;51.276;7.208;2023-06-01T11:30:52;14.43;;;8.90;;
78925;SDS011;68321;51.276;7.208;2023-06-01T11:33:18;15.52;;;8.88;;
78925;SDS011;68321;51.276;7.208;2023-06-01T11:35:44;15.60;;;8.63;;
78925;SDS011;68321;51.276;7.208;2023-06-01T11:38:09;15.43;;;8.65;;
78925;SDS011;68321;51.276;7.208;2023-06-01T11:40:35;14.18;;;7.90;;
78925;SDS011;68321;51.276;7.208;2023-06-01T11:43:01;13.85;;;7.00;;
78925;SDS011;68321;51.276;7.208;2023-06-01T11:45:27;17.83;;;8.80;;
78925;SDS011;68321;51.276;7.208;2023-06-01T11:47:53;15.38;;;7.35;;
78925;SDS011;68321;51.276;7.208;2023-06-01T11:50:22;17.50;;;8.23;;
78925;SDS011;68321;51.276;7.208;2023-06-01T11:52:49;14.15;;;8.07;;
78925;SDS011;68321;51.276;7.208;2023-06-01T11:55:15;20.17;;;7.80;;
78925;SDS011;68321;51.276;7.208;2023-06-01T11:57:42;18.23;;;8.68;;
78925;SDS011;68321;51.276;7.208;2023-06-01T12:00:10;13.98;;;7.95;;
78925;SDS011;68321;51.276;7.208;2023-06-01T12:02:39;19.60;;;8.48;;
78925;SDS011;68321;51.276;7.208;2023-06-01T12:05:08;16.20;;;8.55;;
78925;SDS011;68321;51.276;7.208;2023-06-01T12:10:11;14.18;;;8.52;;
78925;SDS011;68321;51.276;7.208;2023-06-01T12:12:41;13.40;;;9.25;;
78925;SDS011;68321;51.276;7.208;2023-06-01T12:15:08;17.35;;;8.70;;
78925;SDS011;68321;51.276;7.208;2023-06-01T12:17:45;17.50;;;8.30;;
78925;SDS011;68321;51.276;7.208;2023-06-01T12:20:25;17.98;;;9.13;;
78925;SDS011;68321;51.276;7.208;2023-06-01T12:22:53;17.38;;;9.55;;
78925;SDS011;68321;51.276;7.208;2023-06-01T12:25:20;19.33;;;10.38;;
78925;SDS011;68321;51.276;7.208;2023-06-01T12:28:08;16.30;;;10.18;;
78925;SDS011;68321;51.276;7.208;2023-06-01T12:30:35;16.13;;;10.15;;
78925;SDS011;68321;51.276;7.208;2023-06-01T12:33:00;18.55;;;10.57;;
78925;SDS011;68321;51.276;7.208;2023-06-01T12:35:26;17.13;;;9.73;;
78925;SDS011;68321;51.276;7.208;2023-06-01T12:38:12;15.90;;;9.37;;
78925;SDS011;68321;51.276;7.208;2023-06-01T12:40:38;20.52;;;11.35;;
78925;SDS011;68321;51.276;7.208;2023-06-01T12:43:04;22.60;;;11.25;;
78925;SDS011;68321;51.276;7.208;2023-06-01T12:45:37;20.38;;;12.85;;
78925;SDS011;68321;51.276;7.208;2023-06-01T12:48:02;18.63;;;12.05;;
78925;SDS011;68321;51.276;7.208;2023-06-01T12:50:28;19.48;;;12.35;;
78925;SDS011;68321;51.276;7.208;2023-06-01T12:52:53;18.60;;;11.50;;
78925;SDS011;68321;51.276;7.208;2023-06-01T12:55:19;22.13;;;12.52;;
78925;SDS011;68321;51.276;7.208;2023-06-01T12:57:51;25.25;;;14.05;;
78925;SDS011;68321;51.276;7.208;2023-06-01T13:00:18;26.55;;;13.57;;
78925;SDS011;68321;51.276;7.208;2023-06-01T13:02:44;22.60;;;15.15;;
78925;SDS011;68321;51.276;7.208;2023-06-01T13:05:14;19.67;;;12.13;;
78925;SDS011;68321;51.276;7.208;2023-06-01T13:07:41;20.63;;;12.40;;
78925;SDS011;68321;51.276;7.208;2023-06-01T13:10:06;22.85;;;13.00;;
78925;SDS011;68321;51.276;7.208;2023-06-01T13:12:33;21.58;;;12.50;;
78925;SDS011;68321;51.276;7.208;2023-06-01T13:14:59;19.17;;;11.60;;
78925;SDS011;68321;51.276;7.208;2023-06-01T13:17:25;22.50;;;13.18;;
78925;SDS011;68321;51.276;7.208;2023-06-01T13:19:51;22.55;;;12.73;;
78925;SDS011;68321;51.276;7.208;2023-06-01T13:22:17;23.13;;;13.02;;
78925;SDS011;68321;51.276;7.208;2023-06-01T13:24:43;23.27;;;12.27;;
78925;SDS011;68321;51.276;7.208;2023-06-01T13:27:08;20.20;;;12.23;;
78925;SDS011;68321;51.276;7.208;2023-06-01T13:29:33;19.02;;;11.38;;
78925;SDS011;68321;51.276;7.208;2023-06-01T13:31:59;20.27;;;10.60;;
78925;SDS011;68321;51.276;7.208;2023-06-01T13:34:24;18.80;;;10.90;;
78925;SDS011;68321;51.276;7.208;2023-06-01T13:36:50;19.25;;;10.15;;
78925;SDS011;68321;51.276;7.208;2023-06-01T13:39:16;15.55;;;10.25;;
78925;SDS011;68321;51.276;7.208;2023-06-01T13:41:41;18.65;;;11.50;;
78925;SDS011;68321;51.276;7.208;2023-06-01T13:44:07;19.33;;;11.32;;
78925;SDS011;68321;51.276;7.208;2023-06-01T13:46:32;18.52;;;10.40;;
78925;SDS011;68321;51.276;7.208;2023-06-01T13:48:58;20.40;;;10.35;;
78925;SDS011;68321;51.276;7.208;2023-06-01T13:51:23;18.13;;;10.57;;
78925;SDS011;68321;51.276;7.208;2023-06-01T13:53:49;17.50;;;10.43;;
78925;SDS011;68321;51.276;7.208;2023-06-01T13:56:14;14.27;;;9.10;;
78925;SDS011;68321;51.276;7.208;2023-06-01T13:58:39;15.27;;;8.63;;
78925;SDS011;68321;51.276;7.208;2023-06-01T14:01:05;16.85;;;10.02;;
78925;SDS011;68321;51.276;7.208;2023-06-01T14:03:30;17.57;;;10.23;;
78925;SDS011;68321;51.276;7.208;2023-06-01T14:05:55;18.90;;;10.05;;
78925;SDS011;68321;51.276;7.208;2023-06-01T14:08:21;18.13;;;9.73;;
78925;SDS011;68321;51.276;7.208;2023-06-01T14:10:46;15.07;;;8.98;;
78925;SDS011;68321;51.276;7.208;2023-06-01T14:13:11;16.77;;;9.60;;
78925;SDS011;68321;51.276;7.208;2023-06-01T14:15:37;15.77;;;10.38;;
78925;SDS011;68321;51.276;7.208;2023-06-01T14:18:02;15.77;;;8.73;;
78925;SDS011;68321;51.276;7.208;2023-06-01T14:20:28;16.25;;;8.73;;
78925;SDS011;68321;51.276;7.208;2023-06-01T14:22:53;16.67;;;7.45;;
78925;SDS011;68321;51.276;7.208;2023-06-01T14:25:18;18.40;;;7.60;;
78925;SDS011;68321;51.276;7.208;2023-06-01T14:27:45;13.90;;;7.82;;
78925;SDS011;68321;51.276;7.208;2023-06-01T14:30:10;11.73;;;6.30;;
78925;SDS011;68321;51.276;7.208;2023-06-01T14:32:36;10.65;;;6.25;;
78925;SDS011;68321;51.276;7.208;2023-06-01T14:35:01;13.17;;;6.77;;
78925;SDS011;68321;51.276;7.208;2023-06-01T14:37:27;12.68;;;6.95;;
78925;SDS011;68321;51.276;7.208;2023-06-01T14:39:52;12.07;;;7.50;;
78925;SDS011;68321;51.276;7.208;2023-06-01T14:42:17;10.55;;;6.35;;
78925;SDS011;68321;51.276;7.208;2023-06-01T14:44:43;12.03;;;6.53;;
78925;SDS011;68321;51.276;7.208;2023-06-01T14:47:08;9.65;;;5.75;;
78925;SDS011;68321;51.276;7.208;2023-06-01T14:49:36;9.38;;;5.97;;
78925;SDS011;68321;51.276;7.208;2023-06-01T14:52:01;9.07;;;5.75;;
78925;SDS011;68321;51.276;7.208;2023-06-01T14:54:27;9.73;;;5.40;;
78925;SDS011;68321;51.276;7.208;2023-06-01T14:56:53;12.00;;;5.95;;
78925;SDS011;68321;51.276;7.208;2023-06-01T14:59:18;12.80;;;5.72;;
78925;SDS011;68321;51.276;7.208;2023-06-01T15:01:44;12.90;;;6.05;;
78925;SDS011;68321;51.276;7.208;2023-06-01T15:04:09;10.80;;;6.03;;
78925;SDS011;68321;51.276;7.208;2023-06-01T15:06:34;10.90;;;6.03;;
78925;SDS011;68321;51.276;7.208;2023-06-01T15:09:01;10.07;;;5.20;;
78925;SDS011;68321;51.276;7.208;2023-06-01T15:11:27;10.13;;;5.20;;
78925;SDS011;68321;51.276;7.208;2023-06-01T15:13:53;11.18;;;5.53;;
78925;SDS011;68321;51.276;7.208;2023-06-01T15:16:18;8.73;;;5.20;;
78925;SDS011;68321;51.276;7.208;2023-06-01T15:18:44;9.85;;;5.38;;
78925;SDS011;68321;51.276;7.208;2023-06-01T15:21:09;10.85;;;5.85;;
78925;SDS011;68321;51.276;7.208;2023-06-01T15:23:34;12.35;;;5.72;;